createdAt,value
2023-05-01T00:01:47.625Z,99659.42
2023-05-01T00:04:15.062Z,99654.36
2023-05-01T00:06:42.489Z,99651.98
2023-05-01T00:09:09.789Z,99652.52
2023-05-01T00:11:37.810Z,99650.46
2023-05-01T00:14:05.244Z,99651.84
2023-05-01T00:16:32.611Z,99648.40
2023-05-01T00:19:00.013Z,99652.80
2023-05-01T00:21:29.022Z,99658.61
2023-05-01T00:23:56.129Z,99657.83
2023-05-01T00:26:23.323Z,99661.55
2023-05-01T00:28:50.885Z,99658.43
2023-05-01T00:31:18.612Z,99647.70
2023-05-01T00:33:46.413Z,99647.48
2023-05-01T00:36:13.869Z,99648.29
2023-05-01T00:38:41.016Z,99646.29
2023-05-01T00:41:08.528Z,99639.39
2023-05-01T00:43:36.492Z,99636.41
2023-05-01T00:46:04.406Z,99637.46
2023-05-01T00:48:31.576Z,99634.79
2023-05-01T00:50:59.139Z,99641.32
2023-05-01T00:53:26.682Z,99637.69
2023-05-01T00:55:55.062Z,99630.25
2023-05-01T00:58:22.215Z,99631.63
2023-05-01T01:00:49.864Z,99637.28
2023-05-01T01:03:16.951Z,99641.58
2023-05-01T01:05:53.483Z,99642.73
2023-05-01T01:08:24.055Z,99641.68
2023-05-01T01:11:08.883Z,99634.71
2023-05-01T01:13:38.494Z,99638.36
2023-05-01T01:16:24.283Z,99639.90
2023-05-01T01:18:56.646Z,99647.12
2023-05-01T01:21:28.402Z,99648.04
2023-05-01T01:24:11.327Z,99650.53
2023-05-01T01:26:52.536Z,99653.86
2023-05-01T01:29:29.176Z,99650.56
2023-05-01T01:32:02.408Z,99653.65
2023-05-01T01:34:49.720Z,99659.39
2023-05-01T01:37:20.842Z,99659.46
2023-05-01T01:39:58.300Z,99657.26
2023-05-01T01:42:27.234Z,99655.73
2023-05-01T01:45:00.325Z,99654.89
2023-05-01T01:47:32.058Z,99648.27
2023-05-01T01:50:00.554Z,99648.20
2023-05-01T01:52:28.113Z,99645.11
2023-05-01T01:55:05.509Z,99648.31
2023-05-01T01:57:33.170Z,99649.05
2023-05-01T02:00:00.235Z,99656.79
2023-05-01T02:02:28.004Z,99661.28
2023-05-01T02:04:57.430Z,99660.85
2023-05-01T02:07:24.585Z,99661.23
2023-05-01T02:09:51.898Z,99660.56
2023-05-01T02:12:19.071Z,99659.20
2023-05-01T02:14:46.312Z,99661.20
2023-05-01T02:17:14.062Z,99665.73
2023-05-01T02:19:41.046Z,99671.23
2023-05-01T02:22:08.253Z,99669.14
2023-05-01T02:24:35.805Z,99671.69
2023-05-01T02:27:06.711Z,99673.11
2023-05-01T02:29:34.464Z,99675.41
2023-05-01T02:32:01.853Z,99680.02
2023-05-01T02:34:29.052Z,99684.81
2023-05-01T02:36:57.017Z,99681.08
2023-05-01T02:39:24.257Z,99681.42
2023-05-01T02:41:51.496Z,99684.80
2023-05-01T02:44:18.505Z,99686.73
2023-05-01T02:46:45.941Z,99686.54
2023-05-01T02:49:13.609Z,99687.77
2023-05-01T02:51:41.320Z,99689.20
2023-05-01T02:54:08.508Z,99691.83
2023-05-01T02:56:36.572Z,99696.55
2023-05-01T02:59:03.616Z,99700.10
2023-05-01T03:01:31.121Z,99703.14
2023-05-01T03:03:58.543Z,99702.42
2023-05-01T03:06:27.586Z,99703.66
2023-05-01T03:08:55.259Z,99704.81
2023-05-01T03:11:22.523Z,99706.34
2023-05-01T03:13:49.559Z,99707.90
2023-05-01T03:16:16.726Z,99709.49
2023-05-01T03:18:43.922Z,99709.09
2023-05-01T03:21:13.321Z,99713.58
2023-05-01T03:23:40.671Z,99719.53
2023-05-01T03:26:07.932Z,99722.59
2023-05-01T03:28:35.137Z,99721.75
2023-05-01T03:31:02.489Z,99721.98
2023-05-01T03:33:30.442Z,99722.48
2023-05-01T03:36:05.774Z,99724.95
2023-05-01T03:38:33.610Z,99725.61
2023-05-01T03:41:09.937Z,99723.48
2023-05-01T03:44:04.050Z,99720.07
2023-05-01T03:46:42.546Z,99718.98
2023-05-01T03:49:11.714Z,99719.90
2023-05-01T03:51:43.978Z,99720.27
2023-05-01T03:54:11.078Z,99722.06
2023-05-01T03:56:58.861Z,99723.13
2023-05-01T03:59:26.324Z,99726.95
2023-05-01T04:01:53.802Z,99721.72
2023-05-01T04:04:21.267Z,99719.02
2023-05-01T04:06:53.648Z,99717.04
2023-05-01T04:09:21.193Z,99715.66
2023-05-01T04:11:48.277Z,99715.25
2023-05-01T04:14:16.696Z,99713.34
2023-05-01T04:16:43.844Z,99710.34
2023-05-01T04:19:10.940Z,99711.54
2023-05-01T04:21:41.653Z,99710.13
2023-05-01T04:24:09.401Z,99713.33
2023-05-01T04:26:36.647Z,99715.84
2023-05-01T04:29:03.798Z,99718.73
2023-05-01T04:31:31.320Z,99720.83
2023-05-01T04:33:58.910Z,99718.86
2023-05-01T04:36:25.985Z,99719.11
2023-05-01T04:38:53.114Z,99723.55
2023-05-01T04:41:20.153Z,99716.02
2023-05-01T04:43:47.452Z,99718.39
2023-05-01T04:46:17.654Z,99720.65
2023-05-01T04:48:44.782Z,99723.49
2023-05-01T04:51:11.930Z,99724.60
2023-05-01T04:53:39.295Z,99723.30
2023-05-01T04:56:11.129Z,99722.14
2023-05-01T04:58:38.925Z,99719.41
2023-05-01T05:01:09.310Z,99720.09
2023-05-01T05:03:36.607Z,99718.30
2023-05-01T05:06:04.992Z,99718.79
2023-05-01T05:08:32.627Z,99718.04
2023-05-01T05:11:09.102Z,99715.92
2023-05-01T05:13:54.840Z,99715.40
2023-05-01T05:16:22.069Z,99718.13
2023-05-01T05:18:49.232Z,99719.07
2023-05-01T05:21:16.973Z,99712.86
2023-05-01T05:23:48.223Z,99712.45
2023-05-01T05:26:15.362Z,99712.10
2023-05-01T05:28:42.502Z,99715.06
2023-05-01T05:31:09.750Z,99716.09
2023-05-01T05:33:37.082Z,99711.45
2023-05-01T05:36:05.047Z,99714.86
2023-05-01T05:38:36.212Z,99715.61
2023-05-01T05:41:04.089Z,99714.39
2023-05-01T05:43:31.228Z,99717.81
2023-05-01T05:45:59.105Z,99716.13
2023-05-01T05:48:26.592Z,99713.45
2023-05-01T05:50:54.111Z,99714.68
2023-05-01T05:53:22.038Z,99716.38
2023-05-01T05:55:50.705Z,99718.54
2023-05-01T05:58:20.355Z,99725.23
2023-05-01T06:00:48.859Z,99730.61
2023-05-01T06:03:16.630Z,99733.42
2023-05-01T06:05:45.376Z,99738.73
2023-05-01T06:08:13.000Z,99737.92
2023-05-01T06:10:41.893Z,99745.23
2023-05-01T06:13:13.811Z,99749.76
2023-05-01T06:15:45.373Z,99754.81
2023-05-01T06:18:12.805Z,99759.85
2023-05-01T06:20:40.373Z,99762.60
2023-05-01T06:23:09.815Z,99765.30
2023-05-01T06:25:50.166Z,99766.07
2023-05-01T06:28:17.324Z,99766.81
2023-05-01T06:30:44.459Z,99774.42
2023-05-01T06:33:12.141Z,99779.21
2023-05-01T06:35:40.222Z,99784.02
2023-05-01T06:38:07.372Z,99780.33
2023-05-01T06:40:35.509Z,99785.59
2023-05-01T06:43:03.401Z,99785.98
2023-05-01T06:45:30.536Z,99788.91
2023-05-01T06:47:57.718Z,99786.70
2023-05-01T06:50:24.831Z,99787.15
2023-05-01T06:52:52.317Z,99784.63
2023-05-01T06:55:19.440Z,99787.83
2023-05-01T06:57:46.683Z,99792.98
2023-05-01T07:00:15.278Z,99793.13
2023-05-01T07:02:42.673Z,99797.08
2023-05-01T07:05:09.997Z,99800.25
2023-05-01T07:07:38.898Z,99803.30
2023-05-01T07:10:09.752Z,99798.48
2023-05-01T07:12:36.859Z,99792.14
2023-05-01T07:15:04.434Z,99789.46
2023-05-01T07:17:31.598Z,99786.70
2023-05-01T07:19:59.165Z,99783.73
2023-05-01T07:22:26.380Z,99775.73
2023-05-01T07:24:53.588Z,99782.98
2023-05-01T07:27:21.860Z,99782.88
2023-05-01T07:29:50.748Z,99782.56
2023-05-01T07:32:17.999Z,99783.23
2023-05-01T07:34:45.212Z,99782.99
2023-05-01T07:37:12.350Z,99779.94
2023-05-01T07:39:39.840Z,99781.94
2023-05-01T07:42:07.060Z,99785.70
2023-05-01T07:44:34.312Z,99790.27
2023-05-01T07:47:05.909Z,99797.77
2023-05-01T07:49:38.367Z,99799.39
2023-05-01T07:52:08.705Z,99805.96
2023-05-01T07:54:35.952Z,99806.84
2023-05-01T07:57:04.627Z,99807.41
2023-05-01T07:59:31.773Z,99803.77
2023-05-01T08:01:58.949Z,99809.41
2023-05-01T08:04:26.149Z,99811.19
2023-05-01T08:06:53.498Z,99808.77
2023-05-01T08:09:20.836Z,99812.33
2023-05-01T08:11:47.856Z,99815.20
2023-05-01T08:14:17.721Z,99818.02
2023-05-01T08:16:44.879Z,99819.91
2023-05-01T08:19:12.116Z,99822.45
2023-05-01T08:21:39.524Z,99825.02
2023-05-01T08:24:09.214Z,99823.02
2023-05-01T08:26:36.231Z,99823.92
2023-05-01T08:29:03.305Z,99824.61
2023-05-01T08:31:31.021Z,99827.10
2023-05-01T08:33:58.101Z,99834.08
2023-05-01T08:36:25.315Z,99836.56
2023-05-01T08:38:52.348Z,99840.34
2023-05-01T08:41:21.443Z,99845.94
2023-05-01T08:43:49.084Z,99844.89
2023-05-01T08:46:24.764Z,99846.35
2023-05-01T08:48:53.172Z,99843.16
2023-05-01T08:51:23.186Z,99844.45
2023-05-01T08:53:53.124Z,99842.05
2023-05-01T08:56:21.655Z,99841.16
2023-05-01T08:58:48.770Z,99843.95
2023-05-01T09:01:16.519Z,99843.01
2023-05-01T09:03:44.654Z,99842.64
2023-05-01T09:06:12.098Z,99841.37
2023-05-01T09:08:39.601Z,99844.55
2023-05-01T09:11:06.652Z,99844.73
2023-05-01T09:13:33.690Z,99845.75
2023-05-01T09:16:01.299Z,99846.55
2023-05-01T09:18:28.868Z,99843.84
2023-05-01T09:20:56.524Z,99842.73
2023-05-01T09:23:23.656Z,99842.30
2023-05-01T09:25:52.053Z,99846.25
2023-05-01T09:28:19.207Z,99843.94
2023-05-01T09:30:46.820Z,99843.33
2023-05-01T09:33:15.073Z,99849.60
2023-05-01T09:35:53.006Z,99848.39
2023-05-01T09:38:23.998Z,99850.32
2023-05-01T09:40:51.693Z,99850.09
2023-05-01T09:43:28.830Z,99851.59
2023-05-01T09:46:09.808Z,99852.83
2023-05-01T09:48:37.751Z,99847.04
2023-05-01T09:51:21.118Z,99852.30
2023-05-01T09:53:48.357Z,99854.21
2023-05-01T09:56:15.456Z,99854.09
2023-05-01T09:58:42.536Z,99862.39
2023-05-01T10:01:09.698Z,99860.75
2023-05-01T10:03:37.605Z,99859.48
2023-05-01T10:06:05.216Z,99862.26
2023-05-01T10:16:29.033Z,99866.62
2023-05-01T10:19:00.689Z,99871.48
2023-05-01T10:21:29.352Z,99871.16
2023-05-01T10:23:57.350Z,99872.07
2023-05-01T10:26:26.440Z,99874.07
2023-05-01T10:28:53.774Z,99883.50
2023-05-01T10:31:21.132Z,99882.66
2023-05-01T10:33:48.484Z,99884.83
2023-05-01T10:36:40.533Z,99887.98
2023-05-01T10:39:07.564Z,99889.80
2023-05-01T10:42:06.363Z,99895.06
2023-05-01T10:44:35.409Z,99895.58
2023-05-01T10:47:43.091Z,99899.75
2023-05-01T10:50:16.161Z,99901.60
2023-05-01T10:53:18.205Z,99901.15
2023-05-01T10:55:46.427Z,99905.47
2023-05-01T10:58:14.510Z,99902.86
2023-05-01T11:00:41.899Z,99901.27
2023-05-01T11:03:21.253Z,99906.20
2023-05-01T11:06:01.184Z,99910.30
2023-05-01T11:08:35.455Z,99911.44
2023-05-01T11:11:24.365Z,99912.14
2023-05-01T11:14:08.705Z,99911.46
2023-05-01T11:16:46.187Z,99912.77
2023-05-01T11:19:22.788Z,99911.25
2023-05-01T11:21:51.062Z,99913.82
2023-05-01T11:24:19.121Z,99910.91
2023-05-01T11:26:47.531Z,99909.31
2023-05-01T11:29:14.624Z,99910.48
2023-05-01T11:31:41.782Z,99907.64
2023-05-01T11:34:09.064Z,99915.13
2023-05-01T11:36:52.255Z,99917.14
2023-05-01T11:39:19.940Z,99918.94
2023-05-01T11:41:47.243Z,99914.83
2023-05-01T11:44:18.216Z,99919.30
2023-05-01T11:46:45.553Z,99918.87
2023-05-01T11:49:12.674Z,99920.98
2023-05-01T11:51:39.803Z,99923.51
2023-05-01T11:54:08.659Z,99921.48
2023-05-01T11:56:37.533Z,99924.15
2023-05-01T11:59:17.601Z,99922.54
2023-05-01T12:01:45.903Z,99922.44
2023-05-01T12:04:14.143Z,99925.11
2023-05-01T12:06:46.203Z,99926.80
2023-05-01T12:09:23.335Z,99933.21
2023-05-01T12:11:52.918Z,99939.49
2023-05-01T12:14:21.815Z,99942.58
2023-05-01T12:16:49.639Z,99943.28
2023-05-01T12:19:17.691Z,99945.55
2023-05-01T12:21:44.824Z,99944.55
2023-05-01T12:24:17.041Z,99948.02
2023-05-01T12:26:44.931Z,99952.52
2023-05-01T12:29:12.242Z,99956.61
2023-05-01T12:31:49.994Z,99955.77
2023-05-01T12:34:17.512Z,99955.84
2023-05-01T12:36:53.218Z,99952.75
2023-05-01T12:39:20.365Z,99955.69
2023-05-01T12:41:51.116Z,99958.83
2023-05-01T12:44:25.154Z,99961.45
2023-05-01T12:47:08.439Z,99968.55
2023-05-01T12:49:39.375Z,99968.08
2023-05-01T12:52:07.842Z,99973.05
2023-05-01T12:54:38.890Z,99977.89
2023-05-01T12:57:16.004Z,99989.85
2023-05-01T12:59:46.648Z,99992.86
2023-05-01T13:02:16.354Z,99991.96
2023-05-01T13:04:44.103Z,99993.89
2023-05-01T13:07:18.888Z,99998.04
2023-05-01T13:09:53.489Z,99998.53
2023-05-01T13:12:20.826Z,100001.69
2023-05-01T13:14:48.352Z,100004.85
2023-05-01T13:17:23.138Z,100010.10
2023-05-01T13:19:57.421Z,100014.16
2023-05-01T13:22:38.385Z,100017.98
2023-05-01T13:25:17.548Z,100020.75
2023-05-01T13:27:50.017Z,100022.66
2023-05-01T13:30:21.206Z,100024.36
2023-05-01T13:32:49.750Z,100026.20
2023-05-01T13:35:24.648Z,100025.55
2023-05-01T13:37:52.114Z,100028.39
2023-05-01T13:40:19.622Z,100027.72
2023-05-01T13:42:47.011Z,100030.48
2023-05-01T13:45:15.292Z,100032.29
2023-05-01T13:47:42.471Z,100039.12
2023-05-01T13:50:11.025Z,100039.38
2023-05-01T13:52:42.656Z,100045.88
2023-05-01T13:55:10.529Z,100049.95
2023-05-01T13:57:39.049Z,100051.64
2023-05-01T14:00:09.296Z,100052.96
2023-05-01T14:02:44.049Z,100056.64
2023-05-01T14:05:11.946Z,100059.83
2023-05-01T14:07:49.856Z,100064.85
2023-05-01T14:10:16.993Z,100073.10
2023-05-01T14:12:44.135Z,100075.83
2023-05-01T14:15:12.217Z,100077.48
2023-05-01T14:17:39.364Z,100083.94
2023-05-01T14:20:07.272Z,100086.52
2023-05-01T14:22:53.640Z,100091.38
2023-05-01T14:25:28.627Z,100093.32
2023-05-01T14:27:56.534Z,100096.36
2023-05-01T14:30:27.216Z,100094.58
2023-05-01T14:32:54.940Z,100097.81
2023-05-01T14:35:23.447Z,100106.30
2023-05-01T14:37:50.891Z,100107.87
2023-05-01T14:40:26.960Z,100111.72
2023-05-01T14:42:55.299Z,100117.69
2023-05-01T14:45:22.461Z,100121.77
2023-05-01T14:47:49.992Z,100128.02
2023-05-01T14:50:24.013Z,100134.23
2023-05-01T14:52:55.169Z,100137.93
2023-05-01T14:55:28.408Z,100138.79
2023-05-01T14:57:56.031Z,100143.05
2023-05-01T15:00:23.998Z,100144.71
2023-05-01T15:02:51.299Z,100149.30
2023-05-01T15:05:18.509Z,100155.52
2023-05-01T15:07:46.211Z,100157.52
2023-05-01T15:10:13.421Z,100164.27
2023-05-01T15:12:40.576Z,100167.44
2023-05-01T15:15:09.508Z,100169.06
2023-05-01T15:17:36.973Z,100173.11
2023-05-01T15:20:04.443Z,100172.90
2023-05-01T15:22:31.630Z,100174.29
2023-05-01T15:24:59.031Z,100175.56
2023-05-01T15:27:26.438Z,100180.62
2023-05-01T15:29:54.146Z,100180.77
2023-05-01T15:32:21.480Z,100184.40
2023-05-01T15:34:50.348Z,100185.88
2023-05-01T15:37:17.636Z,100192.77
2023-05-01T15:39:44.606Z,100197.23
2023-05-01T15:42:11.703Z,100203.35
2023-05-01T15:44:39.873Z,100203.97
2023-05-01T15:47:07.205Z,100204.35
2023-05-01T15:49:34.462Z,100215.65
2023-05-01T15:52:01.588Z,100218.30
2023-05-01T15:54:28.694Z,100221.77
2023-05-01T15:56:55.833Z,100220.73
2023-05-01T15:59:22.967Z,100227.89
2023-05-01T16:01:50.033Z,100226.80
2023-05-01T16:04:17.436Z,100233.23
2023-05-01T16:06:44.673Z,100237.25
2023-05-01T16:09:13.007Z,100239.55
2023-05-01T16:11:40.326Z,100243.89
2023-05-01T16:14:09.259Z,100247.16
2023-05-01T16:16:36.317Z,100246.57
2023-05-01T16:19:03.342Z,100245.50
2023-05-01T16:21:30.999Z,100247.98
2023-05-01T16:23:58.223Z,100254.19
2023-05-01T16:26:28.145Z,100258.08
2023-05-01T16:29:05.865Z,100261.58
2023-05-01T16:31:39.095Z,100265.80
2023-05-01T16:34:07.252Z,100269.96
2023-05-01T16:36:37.966Z,100268.73
2023-05-01T16:39:05.523Z,100273.17
2023-05-01T16:41:35.096Z,100280.15
2023-05-01T16:44:02.177Z,100283.88
2023-05-01T16:46:30.311Z,100288.09
2023-05-01T16:48:57.456Z,100294.66
2023-05-01T16:51:24.571Z,100300.38
2023-05-01T16:53:51.716Z,100295.98
2023-05-01T16:56:18.844Z,100303.88
2023-05-01T16:58:46.609Z,100304.56
2023-05-01T17:01:13.812Z,100307.94
2023-05-01T17:03:40.927Z,100311.32
2023-05-01T17:06:08.169Z,100316.88
2023-05-01T17:08:35.276Z,100316.71
2023-05-01T17:11:03.167Z,100319.43
2023-05-01T17:13:30.258Z,100326.02
2023-05-01T17:15:57.428Z,100331.93
2023-05-01T17:18:24.499Z,100335.98
2023-05-01T17:20:52.391Z,100343.09
2023-05-01T17:23:19.441Z,100346.03
2023-05-01T17:25:46.665Z,100349.77
2023-05-01T17:28:13.851Z,100357.63
2023-05-01T17:30:41.155Z,100359.91
2023-05-01T17:33:08.279Z,100366.65
2023-05-01T17:35:35.527Z,100368.80
2023-05-01T17:38:02.591Z,100370.87
2023-05-01T17:40:29.700Z,100375.99
2023-05-01T17:42:56.704Z,100371.92
2023-05-01T17:45:23.979Z,100376.42
2023-05-01T17:47:53.016Z,100380.55
2023-05-01T17:50:20.316Z,100381.02
2023-05-01T17:52:47.726Z,100386.05
2023-05-01T17:55:17.775Z,100387.54
2023-05-01T17:57:45.964Z,100396.05
2023-05-01T18:00:13.658Z,100396.13
2023-05-01T18:02:45.522Z,100399.91
2023-05-01T18:05:13.350Z,100398.13
2023-05-01T18:07:41.300Z,100401.42
2023-05-01T18:10:09.575Z,100399.41
2023-05-01T18:12:36.700Z,100401.70
2023-05-01T18:15:04.005Z,100408.48
2023-05-01T18:17:31.119Z,100413.59
2023-05-01T18:19:59.339Z,100421.16
2023-05-01T18:22:27.011Z,100427.30
2023-05-01T18:24:56.380Z,100433.99
2023-05-01T18:27:23.565Z,100445.36
2023-05-01T18:29:50.715Z,100448.33
2023-05-01T18:32:17.865Z,100451.45
2023-05-01T18:34:46.295Z,100456.98
2023-05-01T18:37:13.404Z,100461.20
2023-05-01T18:39:40.869Z,100462.11
2023-05-01T18:42:08.828Z,100463.84
2023-05-01T18:44:35.975Z,100468.55
2023-05-01T18:47:03.198Z,100474.38
2023-05-01T18:49:30.375Z,100471.88
2023-05-01T18:51:57.358Z,100476.88
2023-05-01T18:54:24.545Z,100475.52
2023-05-01T18:56:51.657Z,100478.71
2023-05-01T18:59:18.704Z,100479.04
2023-05-01T19:01:45.805Z,100489.42
2023-05-01T19:04:12.864Z,100485.69
2023-05-01T19:06:41.094Z,100494.19
2023-05-01T19:09:08.392Z,100488.90
2023-05-01T19:11:35.851Z,100493.66
2023-05-01T19:14:03.793Z,100499.43
2023-05-01T19:16:31.345Z,100499.73
2023-05-01T19:18:58.972Z,100502.40
2023-05-01T19:21:26.409Z,100506.24
2023-05-01T19:23:53.536Z,100507.69
2023-05-01T19:26:21.202Z,100504.77
2023-05-01T19:28:48.249Z,100508.05
2023-05-01T19:31:16.579Z,100505.19
2023-05-01T19:33:43.677Z,100507.80
2023-05-01T19:36:10.725Z,100506.31
2023-05-01T19:38:37.935Z,100508.30
2023-05-01T19:41:05.264Z,100512.32
2023-05-01T19:43:32.705Z,100517.50
2023-05-01T19:45:59.791Z,100520.21
2023-05-01T19:48:27.192Z,100519.80
2023-05-01T19:50:54.548Z,100519.81
2023-05-01T19:53:21.746Z,100518.96
2023-05-01T19:55:48.860Z,100522.88
2023-05-01T19:58:16.000Z,100518.76
2023-05-01T20:00:43.055Z,100523.85
2023-05-01T20:03:11.510Z,100528.30
2023-05-01T20:05:39.297Z,100530.65
2023-05-01T20:08:06.442Z,100535.23
2023-05-01T20:10:33.605Z,100536.85
2023-05-01T20:13:00.863Z,100539.50
2023-05-01T20:15:28.509Z,100542.09
2023-05-01T20:17:55.723Z,100542.33
2023-05-01T20:20:22.802Z,100543.10
2023-05-01T20:22:51.714Z,100547.21
2023-05-01T20:25:18.866Z,100544.80
2023-05-01T20:27:45.895Z,100545.14
2023-05-01T20:30:13.456Z,100546.39
2023-05-01T20:32:44.319Z,100544.75
2023-05-01T20:35:11.954Z,100544.52
2023-05-01T20:37:39.421Z,100545.11
2023-05-01T20:40:07.948Z,100548.23
2023-05-01T20:42:34.970Z,100550.86
2023-05-01T20:45:02.090Z,100549.17
2023-05-01T20:47:29.818Z,100551.41
2023-05-01T20:49:57.511Z,100554.73
2023-05-01T20:52:25.634Z,100552.16
2023-05-01T20:54:52.733Z,100557.09
2023-05-01T20:57:19.885Z,100552.75
2023-05-01T20:59:48.197Z,100556.09
2023-05-01T21:02:16.705Z,100557.48
2023-05-01T21:04:44.077Z,100559.75
2023-05-01T21:07:11.939Z,100559.55
2023-05-01T21:09:43.924Z,100560.83
2023-05-01T21:12:10.938Z,100561.37
2023-05-01T21:14:41.536Z,100560.61
2023-05-01T21:17:08.831Z,100557.67
2023-05-01T21:19:42.171Z,100555.91
2023-05-01T21:22:17.478Z,100551.98
2023-05-01T21:24:45.407Z,100551.62
2023-05-01T21:27:12.597Z,100552.15
2023-05-01T21:29:40.570Z,100555.38
2023-05-01T21:32:08.463Z,100560.52
2023-05-01T21:34:35.945Z,100562.79
2023-05-01T21:37:03.436Z,100563.10
2023-05-01T21:39:31.245Z,100557.50
2023-05-01T21:41:58.616Z,100559.94
2023-05-01T21:44:29.703Z,100560.08
2023-05-01T21:46:57.964Z,100560.91
2023-05-01T21:49:27.010Z,100564.74
2023-05-01T21:51:54.640Z,100566.62
2023-05-01T21:54:21.833Z,100570.34
2023-05-01T21:56:48.933Z,100576.48
2023-05-01T21:59:16.292Z,100577.34
2023-05-01T22:01:44.983Z,100581.17
2023-05-01T22:04:17.071Z,100583.23
2023-05-01T22:06:44.326Z,100584.05
2023-05-01T22:09:11.540Z,100581.98
2023-05-01T22:11:38.701Z,100583.05
2023-05-01T22:14:05.844Z,100582.86
2023-05-01T22:16:33.272Z,100582.45
2023-05-01T22:19:00.681Z,100589.81
2023-05-01T22:21:27.977Z,100592.75
2023-05-01T22:23:55.578Z,100597.64
2023-05-01T22:26:22.716Z,100595.41
2023-05-01T22:28:50.148Z,100599.42
2023-05-01T22:31:17.376Z,100602.22
2023-05-01T22:33:44.611Z,100602.91
2023-05-01T22:36:11.787Z,100603.27
2023-05-01T22:38:38.912Z,100605.20
2023-05-01T22:41:06.251Z,100607.83
2023-05-01T22:43:34.708Z,100612.83
2023-05-01T22:46:01.710Z,100620.96
2023-05-01T22:48:28.911Z,100622.41
2023-05-01T22:50:55.960Z,100625.92
2023-05-01T22:53:23.028Z,100628.84
2023-05-01T22:55:50.107Z,100633.52
2023-05-01T22:58:17.203Z,100639.02
2023-05-01T23:00:45.368Z,100638.53
2023-05-01T23:03:12.623Z,100642.32
2023-05-01T23:05:39.855Z,100645.15
2023-05-01T23:08:07.177Z,100649.08
2023-05-01T23:10:34.312Z,100649.19
2023-05-01T23:13:01.649Z,100656.00
2023-05-01T23:15:28.713Z,100655.75
2023-05-01T23:17:56.296Z,100660.36
2023-05-01T23:20:24.228Z,100660.86
2023-05-01T23:22:51.589Z,100665.23
2023-05-01T23:25:23.247Z,100663.52
2023-05-01T23:27:52.118Z,100665.20
2023-05-01T23:30:22.844Z,100667.63
2023-05-01T23:32:50.070Z,100666.73
2023-05-01T23:35:20.584Z,100668.17
2023-05-01T23:37:47.866Z,100672.30
2023-05-01T23:40:14.950Z,100678.97
2023-05-01T23:42:41.996Z,100684.13
2023-05-01T23:45:09.754Z,100683.07
2023-05-01T23:47:37.703Z,100686.12
2023-05-01T23:50:06.009Z,100683.63
2023-05-01T23:52:33.137Z,100692.00
2023-05-01T23:55:00.183Z,100692.41
2023-05-01T23:57:27.335Z,100694.80
2023-05-01T23:59:54.632Z,100698.52
